createdAt,value
2022-10-05T00:01:45.615Z,10.77
2022-10-05T00:04:15.690Z,10.80
2022-10-05T00:06:44.896Z,10.79
2022-10-05T00:09:21.047Z,10.79
2022-10-05T00:11:49.234Z,10.84
2022-10-05T00:14:28.598Z,10.82
2022-10-05T00:16:56.237Z,10.81
2022-10-05T00:19:31.241Z,10.83
2022-10-05T00:22:09.562Z,10.70
2022-10-05T00:24:36.663Z,10.64
2022-10-05T00:27:14.957Z,10.67
2022-10-05T00:29:41.704Z,10.74
2022-10-05T00:32:10.308Z,10.61
2022-10-05T00:34:37.613Z,10.56
2022-10-05T00:37:05.928Z,10.50
2022-10-05T00:39:34.699Z,10.54
2022-10-05T00:42:39.067Z,10.55
2022-10-05T00:45:24.998Z,10.52
2022-10-05T00:48:22.844Z,10.59
2022-10-05T00:51:13.433Z,10.57
2022-10-05T00:54:04.429Z,10.57
2022-10-05T00:57:30.038Z,10.57
2022-10-05T01:00:08.110Z,10.57
2022-10-05T01:02:50.704Z,10.58
2022-10-05T01:05:36.404Z,10.57
2022-10-05T01:08:34.332Z,10.52
2022-10-05T01:11:12.292Z,10.51
2022-10-05T01:14:02.314Z,10.54
2022-10-05T01:16:49.966Z,10.52
2022-10-05T01:19:37.383Z,10.44
2022-10-05T01:22:14.288Z,10.48
2022-10-05T01:25:14.520Z,10.53
2022-10-05T01:27:53.554Z,10.50
2022-10-05T01:30:21.502Z,10.52
2022-10-05T01:33:12.597Z,10.47
2022-10-05T01:36:00.500Z,10.45
2022-10-05T01:38:37.300Z,10.45
2022-10-05T01:41:15.078Z,10.39
2022-10-05T01:44:09.039Z,10.39
2022-10-05T01:46:43.862Z,10.40
2022-10-05T01:49:21.989Z,10.41
2022-10-05T01:52:01.961Z,10.43
2022-10-05T01:54:56.856Z,10.41
2022-10-05T01:57:28.271Z,10.38
2022-10-05T02:00:07.762Z,10.33
2022-10-05T02:03:04.832Z,10.29
2022-10-05T02:05:49.931Z,10.30
2022-10-05T02:08:20.240Z,10.32
2022-10-05T02:10:53.894Z,10.27
2022-10-05T02:13:40.849Z,10.22
2022-10-05T02:16:39.332Z,10.24
2022-10-05T02:19:14.799Z,10.26
2022-10-05T02:21:45.779Z,10.25
2022-10-05T02:24:21.724Z,10.22
2022-10-05T02:26:50.419Z,10.21
2022-10-05T02:29:18.710Z,10.18
2022-10-05T02:31:50.107Z,10.14
2022-10-05T02:34:27.606Z,10.04
2022-10-05T02:37:21.538Z,9.96
2022-10-05T02:39:55.390Z,9.95
2022-10-05T02:42:40.107Z,9.96
2022-10-05T02:45:39.452Z,10.01
2022-10-05T02:48:13.166Z,10.05
2022-10-05T02:51:09.438Z,10.05
2022-10-05T02:54:01.212Z,10.04
2022-10-05T02:56:51.344Z,10.02
2022-10-05T02:59:40.214Z,10.07
2022-10-05T03:02:16.169Z,10.11
2022-10-05T03:04:46.866Z,10.10
2022-10-05T03:07:36.748Z,10.09
2022-10-05T03:10:15.578Z,10.07
2022-10-05T03:12:55.830Z,10.06
2022-10-05T03:15:51.727Z,9.98
2022-10-05T03:18:30.766Z,10.01
2022-10-05T03:21:14.562Z,10.03
2022-10-05T03:24:08.191Z,10.02
2022-10-05T03:26:39.655Z,10.06
2022-10-05T03:29:40.156Z,10.04
2022-10-05T03:32:44.108Z,10.02
2022-10-05T03:35:48.971Z,10.00
2022-10-05T03:38:43.136Z,9.98
2022-10-05T03:41:30.120Z,9.96
2022-10-05T03:44:09.610Z,9.97
2022-10-05T03:47:01.585Z,9.97
2022-10-05T03:49:39.216Z,9.95
2022-10-05T03:52:26.524Z,9.98
2022-10-05T03:55:01.498Z,9.95
2022-10-05T03:57:33.586Z,9.94
2022-10-05T04:00:18.398Z,9.92
2022-10-05T04:03:21.367Z,9.91
2022-10-05T04:05:58.232Z,9.97
2022-10-05T04:08:55.048Z,10.01
2022-10-05T04:11:28.021Z,9.99
2022-10-05T04:14:01.354Z,10.04
2022-10-05T04:16:32.324Z,10.07
2022-10-05T04:19:04.561Z,10.05
2022-10-05T04:21:57.997Z,10.01
2022-10-05T04:24:47.338Z,10.08
2022-10-05T04:27:18.424Z,10.16
2022-10-05T04:29:56.116Z,10.19
2022-10-05T04:32:31.425Z,10.27
2022-10-05T04:35:13.255Z,10.24
2022-10-05T04:37:52.892Z,10.24
2022-10-05T04:40:57.618Z,10.24
2022-10-05T04:43:39.790Z,10.18
2022-10-05T04:46:31.141Z,10.16
2022-10-05T04:49:14.654Z,10.15
2022-10-05T04:52:01.455Z,10.21
2022-10-05T04:54:37.226Z,10.19
2022-10-05T04:57:21.380Z,10.21
2022-10-05T05:00:05.825Z,10.19
2022-10-05T05:03:04.767Z,10.14
2022-10-05T05:06:16.271Z,10.12
2022-10-05T05:09:06.726Z,10.07
2022-10-05T05:12:10.844Z,10.04
2022-10-05T05:14:55.692Z,9.98
2022-10-05T05:17:47.386Z,9.92
2022-10-05T05:20:27.075Z,9.90
2022-10-05T05:23:19.550Z,9.91
2022-10-05T05:25:57.754Z,9.94
2022-10-05T05:28:48.635Z,9.94
2022-10-05T05:31:27.901Z,9.95
2022-10-05T05:34:19.968Z,9.99
2022-10-05T05:37:05.772Z,9.99
2022-10-05T05:39:39.132Z,9.99
2022-10-05T05:42:33.518Z,9.99
2022-10-05T05:45:07.199Z,9.99
2022-10-05T05:47:37.842Z,10.03
2022-10-05T05:50:24.683Z,10.01
2022-10-05T05:53:03.761Z,10.01
2022-10-05T05:55:42.011Z,10.04
2022-10-05T05:58:23.245Z,10.11
2022-10-05T06:00:52.228Z,10.00
2022-10-05T06:03:42.935Z,10.03
2022-10-05T06:06:14.378Z,10.06
2022-10-05T06:08:50.269Z,10.05
2022-10-05T06:11:41.780Z,10.06
2022-10-05T06:14:16.091Z,10.08
2022-10-05T06:16:46.530Z,10.12
2022-10-05T06:19:16.941Z,10.16
2022-10-05T06:21:53.467Z,10.15
2022-10-05T06:24:27.411Z,10.09
2022-10-05T06:27:19.060Z,10.18
2022-10-05T06:30:01.987Z,10.21
2022-10-05T06:32:48.157Z,10.29
2022-10-05T06:35:27.801Z,10.32
2022-10-05T06:38:09.922Z,10.33
2022-10-05T06:40:57.801Z,10.37
2022-10-05T06:43:40.040Z,10.34
2022-10-05T06:46:17.816Z,10.40
2022-10-05T06:49:20.773Z,10.47
2022-10-05T06:52:26.859Z,10.46
2022-10-05T06:55:13.936Z,10.56
2022-10-05T06:57:56.176Z,10.55
2022-10-05T07:00:25.523Z,10.61
2022-10-05T07:03:05.877Z,10.63
2022-10-05T07:05:44.624Z,10.71
2022-10-05T07:08:36.375Z,10.77
2022-10-05T07:11:20.893Z,10.89
2022-10-05T07:14:29.441Z,11.07
2022-10-05T07:17:15.343Z,11.09
2022-10-05T07:20:01.109Z,11.23
2022-10-05T07:22:50.541Z,11.29
2022-10-05T07:25:29.436Z,11.39
2022-10-05T07:28:17.703Z,11.39
2022-10-05T07:30:58.486Z,11.54
2022-10-05T07:33:35.324Z,11.62
2022-10-05T07:36:37.393Z,11.69
2022-10-05T07:39:17.815Z,11.60
2022-10-05T07:42:19.190Z,11.70
2022-10-05T07:44:53.060Z,11.78
2022-10-05T07:47:36.153Z,11.92
2022-10-05T07:50:19.670Z,11.91
2022-10-05T07:52:54.833Z,11.88
2022-10-05T07:55:47.307Z,11.97
2022-10-05T07:58:31.524Z,12.05
2022-10-05T08:01:11.217Z,12.13
2022-10-05T08:03:55.420Z,12.22
2022-10-05T08:06:39.125Z,12.25
2022-10-05T08:09:20.232Z,12.35
2022-10-05T08:12:02.266Z,12.42
2022-10-05T08:14:35.846Z,12.55
2022-10-05T08:17:06.135Z,12.58
2022-10-05T08:19:40.382Z,12.63
2022-10-05T08:22:10.096Z,12.67
2022-10-05T08:25:02.159Z,12.65
2022-10-05T08:27:42.354Z,12.65
2022-10-05T08:30:11.953Z,12.76
2022-10-05T08:32:47.700Z,12.76
2022-10-05T08:35:25.548Z,12.79
2022-10-05T08:37:52.636Z,12.79
2022-10-05T08:40:19.307Z,12.79
2022-10-05T08:43:14.788Z,12.84
2022-10-05T08:46:07.831Z,12.93
2022-10-05T08:48:56.615Z,13.02
2022-10-05T08:51:31.789Z,13.19
2022-10-05T08:54:17.488Z,13.16
2022-10-05T08:57:08.669Z,13.10
2022-10-05T08:59:54.165Z,13.27
2022-10-05T09:02:39.197Z,13.17
2022-10-05T09:05:42.606Z,13.38
2022-10-05T09:08:36.016Z,13.40
2022-10-05T09:11:07.301Z,13.56
2022-10-05T09:14:01.487Z,13.59
2022-10-05T09:16:47.180Z,13.63
2022-10-05T09:19:52.623Z,13.59
2022-10-05T09:22:40.920Z,13.60
2022-10-05T09:25:33.111Z,13.63
2022-10-05T09:28:18.321Z,13.72
2022-10-05T09:30:51.694Z,13.88
2022-10-05T09:33:43.494Z,13.97
2022-10-05T09:36:25.433Z,13.90
2022-10-05T09:39:23.932Z,13.93
2022-10-05T09:42:09.011Z,14.05
2022-10-05T09:44:58.202Z,14.04
2022-10-05T09:47:50.722Z,14.10
2022-10-05T09:50:40.982Z,14.13
2022-10-05T09:53:46.252Z,14.13
2022-10-05T09:56:34.942Z,14.08
2022-10-05T09:59:17.551Z,14.15
2022-10-05T10:02:15.383Z,14.11
2022-10-05T10:05:05.767Z,14.02
2022-10-05T10:07:55.932Z,13.98
2022-10-05T10:10:38.960Z,13.95
2022-10-05T10:13:40.767Z,14.05
2022-10-05T10:16:45.939Z,14.04
2022-10-05T10:19:41.318Z,14.16
2022-10-05T10:22:20.214Z,14.25
2022-10-05T10:25:31.833Z,14.40
2022-10-05T10:28:10.690Z,14.55
2022-10-05T10:31:04.136Z,14.66
2022-10-05T10:33:52.214Z,14.60
2022-10-05T10:36:32.785Z,14.75
2022-10-05T10:39:12.162Z,14.86
2022-10-05T10:41:45.661Z,14.93
2022-10-05T10:44:24.211Z,14.79
2022-10-05T10:46:57.458Z,14.89
2022-10-05T10:49:53.552Z,14.98
2022-10-05T10:52:33.080Z,15.00
2022-10-05T10:55:19.096Z,15.21
2022-10-05T10:58:18.178Z,15.14
2022-10-05T11:01:06.250Z,15.23
2022-10-05T11:03:44.069Z,15.51
2022-10-05T11:06:33.025Z,15.81
2022-10-05T11:09:25.724Z,16.01
2022-10-05T11:12:45.392Z,16.22
2022-10-05T11:15:20.686Z,16.56
2022-10-05T11:18:10.633Z,16.59
2022-10-05T11:20:56.347Z,16.77
2022-10-05T11:23:51.189Z,16.88
2022-10-05T11:26:43.126Z,16.98
2022-10-05T11:29:40.554Z,16.93
2022-10-05T11:32:31.113Z,16.95
2022-10-05T11:35:24.828Z,16.92
2022-10-05T11:38:07.191Z,16.95
2022-10-05T11:40:59.260Z,16.77
2022-10-05T11:43:32.511Z,16.83
2022-10-05T11:46:17.280Z,16.77
2022-10-05T11:49:14.628Z,16.85
2022-10-05T11:51:55.446Z,17.16
2022-10-05T11:54:46.606Z,17.49
2022-10-05T11:57:41.255Z,17.63
2022-10-05T12:00:18.671Z,17.55
2022-10-05T12:03:16.451Z,17.34
2022-10-05T12:06:02.891Z,17.14
2022-10-05T12:09:08.162Z,17.03
2022-10-05T12:12:01.147Z,16.97
2022-10-05T12:14:33.670Z,17.11
2022-10-05T12:17:31.267Z,17.32
2022-10-05T12:20:01.696Z,17.42
2022-10-05T12:22:34.958Z,17.47
2022-10-05T12:25:31.903Z,17.65
2022-10-05T12:28:05.392Z,17.72
2022-10-05T12:30:54.824Z,17.90
2022-10-05T12:33:49.595Z,18.05
2022-10-05T12:37:03.522Z,18.25
2022-10-05T12:39:37.217Z,18.45
2022-10-05T12:42:28.218Z,18.65
2022-10-05T12:45:22.271Z,18.58
2022-10-05T12:48:15.960Z,18.66
2022-10-05T12:50:48.543Z,18.64
2022-10-05T12:53:20.425Z,18.74
2022-10-05T12:56:10.385Z,18.77
2022-10-05T12:58:50.573Z,18.88
2022-10-05T13:01:36.256Z,18.89
2022-10-05T13:04:40.580Z,19.05
2022-10-05T13:07:29.176Z,19.14
2022-10-05T13:10:01.525Z,19.23
2022-10-05T13:12:51.653Z,19.27
2022-10-05T13:15:29.615Z,19.29
2022-10-05T13:17:56.296Z,19.34
2022-10-05T13:20:31.373Z,19.36
2022-10-05T13:23:09.699Z,19.46
2022-10-05T13:25:39.858Z,19.44
2022-10-05T13:28:32.123Z,19.64
2022-10-05T13:31:27.007Z,19.73
2022-10-05T13:34:06.978Z,19.85
2022-10-05T13:36:39.755Z,19.94
2022-10-05T13:39:28.379Z,19.93
2022-10-05T13:42:15.773Z,19.91
2022-10-05T13:44:45.011Z,19.96
2022-10-05T13:47:17.316Z,20.10
2022-10-05T13:50:04.101Z,20.10
2022-10-05T13:52:42.422Z,19.93
2022-10-05T13:55:26.878Z,20.12
2022-10-05T13:58:08.812Z,20.28
2022-10-05T14:00:46.857Z,20.24
2022-10-05T14:03:34.466Z,20.09
2022-10-05T14:06:05.438Z,20.19
2022-10-05T14:08:34.366Z,20.19
2022-10-05T14:11:21.408Z,20.26
2022-10-05T14:13:49.223Z,20.32
2022-10-05T14:16:22.461Z,20.39
2022-10-05T14:18:59.075Z,20.24
2022-10-05T14:21:29.640Z,20.16
2022-10-05T14:23:58.873Z,20.19
2022-10-05T14:26:25.548Z,20.20
2022-10-05T14:29:13.922Z,20.22
2022-10-05T14:31:50.123Z,20.35
2022-10-05T14:34:26.888Z,20.37
2022-10-05T14:37:18.110Z,20.37
2022-10-05T14:39:49.952Z,20.55
2022-10-05T14:42:19.918Z,20.66
2022-10-05T14:44:59.512Z,20.68
2022-10-05T14:47:29.829Z,20.63
2022-10-05T14:50:16.951Z,20.57
2022-10-05T14:52:51.645Z,20.55
2022-10-05T14:55:44.890Z,20.44
2022-10-05T14:58:39.481Z,20.31
2022-10-05T15:01:28.795Z,20.42
2022-10-05T15:04:23.685Z,20.40
2022-10-05T15:07:20.323Z,20.37
2022-10-05T15:09:56.080Z,20.49
2022-10-05T15:12:55.209Z,20.41
2022-10-05T15:15:37.203Z,20.65
2022-10-05T15:18:15.123Z,20.71
2022-10-05T15:21:11.185Z,21.17
2022-10-05T15:23:41.663Z,22.43
2022-10-05T15:26:11.477Z,23.51
2022-10-05T15:28:54.451Z,24.67
2022-10-05T15:31:40.074Z,25.05
2022-10-05T15:34:20.933Z,25.14
2022-10-05T15:37:22.684Z,25.23
2022-10-05T15:40:00.209Z,25.55
2022-10-05T15:42:38.562Z,24.93
2022-10-05T15:45:26.099Z,23.52
2022-10-05T15:48:20.213Z,22.37
2022-10-05T15:51:10.839Z,20.81
2022-10-05T15:53:39.858Z,19.93
2022-10-05T15:56:20.839Z,19.61
2022-10-05T15:58:55.899Z,19.26
2022-10-05T16:01:31.670Z,18.81
2022-10-05T16:04:08.111Z,18.76
2022-10-05T16:07:05.774Z,18.56
2022-10-05T16:10:09.743Z,18.30
2022-10-05T16:13:26.382Z,18.11
2022-10-05T16:16:16.904Z,17.82
2022-10-05T16:18:47.741Z,17.61
2022-10-05T16:21:52.947Z,17.51
2022-10-05T16:24:22.634Z,17.39
2022-10-05T16:26:59.908Z,17.31
2022-10-05T16:29:54.526Z,17.13
2022-10-05T16:32:30.348Z,16.97
2022-10-05T16:35:19.542Z,16.85
2022-10-05T16:37:46.225Z,16.86
2022-10-05T16:40:51.071Z,16.66
2022-10-05T16:43:27.396Z,16.57
2022-10-05T16:46:27.506Z,16.53
2022-10-05T16:49:19.919Z,16.40
2022-10-05T16:52:04.265Z,16.44
2022-10-05T16:55:05.134Z,16.24
2022-10-05T16:57:39.950Z,16.21
2022-10-05T17:00:19.839Z,16.23
2022-10-05T17:03:22.043Z,16.17
2022-10-05T17:06:07.404Z,16.18
2022-10-05T17:09:08.986Z,16.02
2022-10-05T17:11:41.810Z,16.03
2022-10-05T17:14:21.073Z,15.99
2022-10-05T17:17:26.364Z,15.89
2022-10-05T17:19:56.255Z,15.87
2022-10-05T17:22:37.668Z,15.81
2022-10-05T17:25:13.187Z,15.73
2022-10-05T17:27:58.147Z,15.72
2022-10-05T17:30:40.161Z,15.70
2022-10-05T17:33:14.274Z,15.65
2022-10-05T17:35:54.615Z,15.63
2022-10-05T17:38:23.425Z,15.63
2022-10-05T17:41:12.238Z,15.63
2022-10-05T17:43:39.221Z,15.58
2022-10-05T17:46:10.399Z,15.56
2022-10-05T17:48:49.352Z,15.57
2022-10-05T17:51:35.742Z,15.57
2022-10-05T17:54:40.740Z,15.53
2022-10-05T17:57:07.445Z,15.51
2022-10-05T17:59:46.207Z,15.52
2022-10-05T18:02:40.728Z,15.39
2022-10-05T18:05:14.640Z,15.39
2022-10-05T18:07:43.014Z,15.34
2022-10-05T18:10:09.930Z,15.33
2022-10-05T18:12:36.712Z,15.28
2022-10-05T18:15:06.506Z,15.30
2022-10-05T18:18:24.413Z,15.18
2022-10-05T18:21:23.611Z,15.12
2022-10-05T18:23:59.489Z,15.08
2022-10-05T18:26:44.396Z,15.04
2022-10-05T18:29:43.599Z,15.00
2022-10-05T18:32:40.819Z,14.89
2022-10-05T18:35:13.675Z,14.94
2022-10-05T18:37:42.966Z,14.94
2022-10-05T18:40:30.557Z,14.88
2022-10-05T18:43:23.646Z,14.88
2022-10-05T18:46:22.128Z,14.83
2022-10-05T18:49:16.473Z,14.80
2022-10-05T18:52:23.534Z,14.78
2022-10-05T18:55:19.374Z,14.67
2022-10-05T18:58:10.019Z,14.67
2022-10-05T19:00:45.683Z,14.67
2022-10-05T19:03:19.127Z,14.71
2022-10-05T19:06:13.479Z,14.73
2022-10-05T19:08:55.336Z,14.65
2022-10-05T19:11:28.915Z,14.66
2022-10-05T19:14:20.837Z,14.61
2022-10-05T19:17:02.813Z,14.57
2022-10-05T19:19:48.959Z,14.57
2022-10-05T19:22:23.710Z,14.55
2022-10-05T19:25:21.842Z,14.55
2022-10-05T19:28:01.495Z,14.57
2022-10-05T19:30:50.109Z,14.58
2022-10-05T19:33:35.923Z,14.62
2022-10-05T19:36:12.253Z,14.59
2022-10-05T19:39:18.201Z,14.58
2022-10-05T19:42:02.313Z,14.53
2022-10-05T19:44:57.587Z,14.55
2022-10-05T19:48:12.650Z,14.44
2022-10-05T19:50:40.012Z,14.37
2022-10-05T19:53:24.377Z,14.41
2022-10-05T19:55:51.705Z,14.42
2022-10-05T19:58:27.386Z,14.50
2022-10-05T20:01:02.401Z,14.46
2022-10-05T20:03:31.360Z,14.50
2022-10-05T20:06:00.211Z,14.44
2022-10-05T20:08:32.132Z,14.43
2022-10-05T20:11:11.327Z,14.40
2022-10-05T20:13:41.835Z,14.39
2022-10-05T20:16:32.201Z,14.38
2022-10-05T20:19:17.751Z,14.37
2022-10-05T20:21:56.791Z,14.29
2022-10-05T20:24:25.858Z,14.24
2022-10-05T20:27:02.734Z,14.24
2022-10-05T20:29:35.642Z,14.08
2022-10-05T20:32:12.345Z,14.07
2022-10-05T20:34:43.773Z,13.98
2022-10-05T20:37:12.291Z,13.94
2022-10-05T20:39:39.869Z,13.95
2022-10-05T20:42:07.842Z,13.97
2022-10-05T20:44:36.367Z,14.07
2022-10-05T20:47:03.779Z,14.02
2022-10-05T20:49:31.882Z,13.97
2022-10-05T20:51:59.249Z,14.09
2022-10-05T20:54:26.790Z,14.10
2022-10-05T20:56:55.776Z,14.10
2022-10-05T20:59:23.809Z,14.16
2022-10-05T21:01:50.761Z,14.16
2022-10-05T21:04:19.471Z,14.24
2022-10-05T21:06:46.702Z,14.16
2022-10-05T21:09:15.120Z,14.26
2022-10-05T21:11:42.545Z,14.32
2022-10-05T21:14:10.520Z,14.16
2022-10-05T21:16:38.395Z,14.19
2022-10-05T21:19:07.157Z,14.19
2022-10-05T21:21:34.059Z,14.12
2022-10-05T21:24:00.798Z,14.20
2022-10-05T21:26:29.133Z,14.22
2022-10-05T21:28:56.680Z,14.18
2022-10-05T21:31:23.477Z,14.14
2022-10-05T21:33:50.204Z,14.20
2022-10-05T21:36:21.131Z,14.26
2022-10-05T21:38:51.840Z,14.31
2022-10-05T21:41:18.767Z,14.17
2022-10-05T21:43:45.894Z,14.24
2022-10-05T21:46:20.352Z,14.27
2022-10-05T21:48:48.397Z,14.32
2022-10-05T21:51:17.298Z,14.29
2022-10-05T21:53:49.097Z,14.33
2022-10-05T21:56:18.334Z,14.29
2022-10-05T21:58:45.891Z,14.23
2022-10-05T22:01:12.756Z,14.24
2022-10-05T22:03:39.617Z,14.26
2022-10-05T22:06:07.171Z,14.21
2022-10-05T22:08:34.682Z,14.12
2022-10-05T22:11:10.262Z,14.20
2022-10-05T22:13:48.267Z,14.25
2022-10-05T22:16:16.326Z,14.24
2022-10-05T22:18:43.284Z,14.27
2022-10-05T22:21:12.254Z,14.22
2022-10-05T22:23:40.202Z,14.10
2022-10-05T22:26:08.773Z,14.20
2022-10-05T22:28:35.703Z,14.18
2022-10-05T22:31:04.374Z,14.08
2022-10-05T22:33:31.463Z,14.13
2022-10-05T22:35:59.372Z,14.05
2022-10-05T22:38:26.896Z,14.13
2022-10-05T22:40:53.801Z,14.15
2022-10-05T22:43:20.528Z,14.27
2022-10-05T22:45:47.427Z,14.31
2022-10-05T22:48:14.363Z,14.34
2022-10-05T22:50:44.301Z,14.42
2022-10-05T22:53:11.781Z,14.30
2022-10-05T22:55:39.000Z,14.46
2022-10-05T22:58:05.944Z,14.60
2022-10-05T23:00:56.444Z,14.70
2022-10-05T23:03:20.283Z,14.72
2022-10-05T23:05:46.995Z,14.75
2022-10-05T23:08:13.692Z,14.77
2022-10-05T23:10:40.453Z,14.78
2022-10-05T23:13:08.001Z,14.75
2022-10-05T23:15:34.701Z,14.62
2022-10-05T23:18:01.488Z,14.68
2022-10-05T23:20:28.265Z,14.66
2022-10-05T23:22:55.118Z,14.73
2022-10-05T23:25:22.360Z,14.63
2022-10-05T23:27:49.352Z,14.64
2022-10-05T23:30:16.184Z,14.68
2022-10-05T23:32:44.547Z,14.52
2022-10-05T23:35:12.887Z,14.43
2022-10-05T23:37:43.081Z,14.50
2022-10-05T23:40:12.435Z,14.52
2022-10-05T23:42:40.148Z,14.40
2022-10-05T23:45:10.927Z,14.39
2022-10-05T23:47:38.766Z,14.46
2022-10-05T23:50:07.154Z,14.56
2022-10-05T23:52:35.059Z,14.50
2022-10-05T23:55:05.598Z,14.45
2022-10-05T23:57:32.454Z,14.49
